8

www.moto.it

MX 2018. Cairoli e Prado in pole nel GP del Regno Unito

8
...

MX 2018. Cairoli e Prado in pole nel GP del Regno Unito

Tony Cairoli non ci ha messo molto a sottolineare quanto gli piaccia il circuito di Matterley Basin che in passato gli ha dato numerose soddisfazioni, e lo ha fatto nel migliore dei modi e cioè lasciandosi alle spalle l’acerrimo rivale Jeffrey Herlings con una condotta esemplare: partenza al comando e assolo il testa al gruppo con un buon margine di sicurezza.


L’olandese invece è partito 4°, e solo a due tornate dalla fine è riuscito a scavalcare Glenn Coldenhoff e a tagliare il traguardo al posto d’onore davanti al connazionale compagno di scuderia e a Tim Gajser. Quinta piazza per Clement Desalle che si è portato in scia Gautier Paulin, mentre Alex Lupino ha concluso 12° dopo aver guadagnato un paio di posizioni.


MX2
Senza storie anche la MX2, che ha registrato un’altra prova di forza di Jorge Prado che ha riproposto lo stesso copione di Cairoli ovvero pole alla partenza e gara a sé inseguito a distanza da Pauls Jonass, Thomas Olsen e Ben Watson rimasti nell’ordine per tutta la gara. Ritirato Samuele Bernardini a otto giri dalla fine dopo una caduta, il miglior risultato azzurro è stato quello di Michele Cervellin che ha debuttato con la Yamaha del team SM Action ottenendo un promettente 8° posto.


La manche dell’Europeo 300 vinta dal pilota di casa Brad Andersen ha registrato la 4ª posizione di Manuel Jacobi, quella della EMX250 il 10° di Alberto Forato e il 18° di Gianluca Facchetti, mentre la prova d’apertura della classe Veterani è andata al ceco Martin Zerava che non ha avuto problemi a spuntarla su Mickael Pichon autore di una bella rimonta in sella ad una KTM 250 2 tempi; 4° Christian Ravaglia e 6° Michele Dal Bosco.

CLASSIFICHE

MXGP - Qualifying Race - Classification

Pos Nr Rider Nat. Fed. Bike Time laps Diff. First Diff. Prev. Bestlaptime in lap Speed
1 222 Cairoli, Antonio ITA FMI KTM 25:51.194 10 0:00.000 0:00.000 2:19.618 5 50.2
2 84 Herlings, Jeffrey NED KNMV KTM 26:11.215 10 0:20.021 0:20.021 2:21.667 6 49.5
3 259 Coldenhoff, Glenn NED KNMV KTM 26:15.327 10 0:24.133 0:04.112 2:22.040 5 49.4
4 243 Gajser, Tim SLO AMZS Honda 26:19.232 10 0:28.038 0:03.905 2:22.469 6 49.2
5 25 Desalle, Clement BEL FMB Kawasaki 26:24.015 10 0:32.821 0:04.783 2:22.091 7 49.4
6 21 Paulin, Gautier FRA MCM Husqvarna 26:26.702 10 0:35.508 0:02.687 2:22.855 4 49.1
7 100 Searle, Tommy GBR ACU Kawasaki 26:28.667 10 0:37.473 0:01.965 2:22.816 2 49.1
8 89 Van Horebeek, Jeremy BEL FMB Yamaha 26:35.798 10 0:44.604 0:07.131 2:23.242 3 49
9 99 Anstie, Max GBR ACU Husqvarna 26:37.715 10 0:46.521 0:01.917 2:23.451 2 48.9
10 461 Febvre, Romain FRA FFM Yamaha 26:39.235 10 0:48.041 0:01.520 2:23.731 3 48.8
11 777 Bobryshev, Evgeny RUS MFR Suzuki 26:40.118 10 0:48.924 0:00.883 2:23.422 5 48.9
12 77 Lupino, Alessandro ITA FMI Kawasaki 26:40.813 10 0:49.619 0:00.695 2:22.874 5 49.1
13 91 Seewer, Jeremy SUI FMS Yamaha 26:40.874 10 0:49.680 0:00.061 2:22.958 5 49.1
14 33 Lieber, Julien BEL FMB Kawasaki 26:50.794 10 0:59.600 0:09.920 2:24.811 6 48.4
15 22 Strijbos, Kevin BEL FMB KTM 26:54.580 10 1:03.386 0:03.786 2:24.665 7 48.5
16 92 Guillod, Valentin SUI FMS KTM 26:57.141 10 1:05.947 0:02.561 2:26.255 5 47.9
17 24 Simpson, Shaun GBR ACU Yamaha 26:58.495 10 1:07.301 0:01.354 2:25.363 4 48.2
18 55 Irwin, Graeme GBR MCUI KTM 27:01.436 10 1:10.242 0:02.941 2:25.484 4 48.2
19 27 Jasikonis, Arminas LTU LMSF Honda 27:01.705 10 1:10.511 0:00.269 2:25.541 6 48.2
20 12 Nagl, Maximilian GER DMSB TM 27:07.667 10 1:16.473 0:05.962 2:25.702 9 48.1

MX2 - Qualifying Race - Classification

Pos Nr Rider Nat. Fed. Bike Time laps Diff. First Diff. Prev. Bestlaptime in lap Speed
1 61 Prado, Jorge ESP RFME KTM 26:32.136 10 0:00.000 0:00.000 2:24.273 5 48.6
2 1 Jonass, Pauls LAT LAMSF KTM 26:38.180 10 0:06.044 0:06.044 2:24.863 6 48.4
3 19 Olsen, Thomas Kjer DEN DMU Husqvarna 26:39.406 10 0:07.270 0:01.226 2:24.822 5 48.4
4 919 Watson, Ben GBR ACU Yamaha 26:44.623 10 0:12.487 0:05.217 2:25.550 6 48.2
5 96 Lawrence, Hunter AUS MA Honda 26:45.716 10 0:13.580 0:01.093 2:23.812 6 48.8
6 14 Beaton, Jed AUS MA Kawasaki 26:46.524 10 0:14.388 0:00.808 2:24.808 5 48.4
7 10 Vlaanderen, Calvin RSA KNMV Honda 26:51.954 10 0:19.818 0:05.430 2:25.496 4 48.2
8 747 Cervellin, Michele ITA FMI Yamaha 26:57.504 10 0:25.368 0:05.550 2:26.346 7 47.9
9 66 Larranaga Olano, Iker ESP RFME Husqvarna 27:00.799 10 0:28.663 0:03.295 2:25.954 6 48
10 70 Fernandez, Ruben ESP RFME Kawasaki 27:07.937 10 0:35.801 0:07.138 2:26.485 10 47.9
11 426 Mewse, Conrad GBR ACU KTM 27:09.017 10 0:36.881 0:01.080 2:26.384 10 47.9
12 57 Sanayei, Darian USA ACU Kawasaki 27:10.321 10 0:38.185 0:01.304 2:24.942 10 48.4
13 64 Covington, Thomas USA MUL Husqvarna 27:16.359 10 0:44.223 0:06.038 2:26.616 8 47.8
14 326 Gilbert, Josh GBR ACU Honda 27:18.755 10 0:46.619 0:02.396 2:27.801 7 47.4
15 29 Jacobi, Henry GER DMSB Husqvarna 27:19.128 10 0:46.992 0:00.373 2:25.967 8 48
16 193 Geerts, Jago BEL FMB Yamaha 27:21.148 10 0:49.012 0:02.020 2:26.694 9 47.8
17 127 Rodriguez, Anthony VEN FMV Yamaha 27:21.230 10 0:49.094 0:00.082 2:26.658 8 47.8
18 56 Weltin, Marshal USA AMA Honda 27:28.738 10 0:56.602 0:07.508 2:27.378 8 47.6
19 46 Pootjes, Davy NED KNMV KTM 27:33.645 10 1:01.509 0:04.907 2:28.649 5 47.2
20 95 Furlotti, Simone ITA FMI Yamaha 27:35.999 10 1:03.863 0:02.354 2:27.814 6 47.4